sensor_id;sensor_type;location;lat;lon;timestamp;pressure;altitude;pressure_sealevel;temperature;humidity
79309;BME280;68767;53.078;7.386;2023-07-08T00:00:53;102129.44;;;17.04;75.05
79309;BME280;68767;53.078;7.386;2023-07-08T00:03:20;102135.53;;;17.01;74.77
79309;BME280;68767;53.078;7.386;2023-07-08T00:05:49;102134.63;;;16.97;74.71
79309;BME280;68767;53.078;7.386;2023-07-08T00:08:19;102125.66;;;16.96;75.32
79309;BME280;68767;53.078;7.386;2023-07-08T00:10:47;102131.63;;;16.90;75.47
79309;BME280;68767;53.078;7.386;2023-07-08T00:13:14;102123.16;;;16.91;75.05
79309;BME280;68767;53.078;7.386;2023-07-08T00:15:41;102118.50;;;16.92;75.40
79309;BME280;68767;53.078;7.386;2023-07-08T00:18:13;102128.59;;;16.91;75.00
79309;BME280;68767;53.078;7.386;2023-07-08T00:20:43;102123.16;;;16.91;74.56
79309;BME280;68767;53.078;7.386;2023-07-08T00:23:11;102127.50;;;16.83;74.97
79309;BME280;68767;53.078;7.386;2023-07-08T00:25:39;102119.69;;;16.82;75.15
79309;BME280;68767;53.078;7.386;2023-07-08T00:28:11;102127.38;;;16.80;74.87
79309;BME280;68767;53.078;7.386;2023-07-08T00:30:38;102122.75;;;16.80;76.04
79309;BME280;68767;53.078;7.386;2023-07-08T00:33:06;102118.75;;;16.78;75.27
79309;BME280;68767;53.078;7.386;2023-07-08T00:35:38;102116.69;;;16.75;75.61
79309;BME280;68767;53.078;7.386;2023-07-08T00:38:22;102116.34;;;16.76;75.46
79309;BME280;68767;53.078;7.386;2023-07-08T00:41:04;102117.50;;;16.75;75.77
79309;BME280;68767;53.078;7.386;2023-07-08T00:43:38;102119.25;;;16.71;76.37
79309;BME280;68767;53.078;7.386;2023-07-08T00:46:18;102114.66;;;16.72;76.23
79309;BME280;68767;53.078;7.386;2023-07-08T00:48:45;102114.00;;;16.66;75.70
79309;BME280;68767;53.078;7.386;2023-07-08T00:51:13;102118.63;;;16.66;76.83
79309;BME280;68767;53.078;7.386;2023-07-08T00:53:40;102123.09;;;16.62;76.68
79309;BME280;68767;53.078;7.386;2023-07-08T00:56:12;102121.97;;;16.63;76.21
79309;BME280;68767;53.078;7.386;2023-07-08T00:58:46;102123.59;;;16.64;76.63
79309;BME280;68767;53.078;7.386;2023-07-08T01:01:16;102125.34;;;16.60;76.21
79309;BME280;68767;53.078;7.386;2023-07-08T01:03:57;102120.75;;;16.51;76.88
79309;BME280;68767;53.078;7.386;2023-07-08T01:06:31;102122.84;;;16.46;77.87
79309;BME280;68767;53.078;7.386;2023-07-08T01:09:02;102116.31;;;16.38;77.98
79309;BME280;68767;53.078;7.386;2023-07-08T01:11:32;102116.03;;;16.40;78.36
79309;BME280;68767;53.078;7.386;2023-07-08T01:14:00;102110.63;;;16.31;78.54
79309;BME280;68767;53.078;7.386;2023-07-08T01:16:29;102115.44;;;16.25;79.38
79309;BME280;68767;53.078;7.386;2023-07-08T01:19:01;102105.03;;;16.27;79.68
79309;BME280;68767;53.078;7.386;2023-07-08T01:24:02;102100.78;;;16.18;79.92
79309;BME280;68767;53.078;7.386;2023-07-08T01:26:33;102093.44;;;16.18;79.99
79309;BME280;68767;53.078;7.386;2023-07-08T01:29:01;102101.09;;;16.16;79.79
79309;BME280;68767;53.078;7.386;2023-07-08T01:31:29;102096.94;;;16.19;79.99
79309;BME280;68767;53.078;7.386;2023-07-08T01:33:57;102092.97;;;16.16;80.59
79309;BME280;68767;53.078;7.386;2023-07-08T01:36:24;102092.63;;;16.18;80.42
79309;BME280;68767;53.078;7.386;2023-07-08T01:38:55;102090.75;;;16.10;80.18
79309;BME280;68767;53.078;7.386;2023-07-08T01:41:22;102085.78;;;16.12;80.75
79309;BME280;68767;53.078;7.386;2023-07-08T01:43:49;102082.28;;;16.11;80.13
79309;BME280;68767;53.078;7.386;2023-07-08T01:46:23;102077.19;;;16.10;80.71
79309;BME280;68767;53.078;7.386;2023-07-08T01:48:54;102083.56;;;16.05;80.77
79309;BME280;68767;53.078;7.386;2023-07-08T01:51:24;102079.94;;;16.01;81.15
79309;BME280;68767;53.078;7.386;2023-07-08T01:53:52;102078.97;;;15.97;81.28
79309;BME280;68767;53.078;7.386;2023-07-08T01:56:19;102068.63;;;15.99;81.19
79309;BME280;68767;53.078;7.386;2023-07-08T01:58:46;102077.06;;;15.97;81.04
79309;BME280;68767;53.078;7.386;2023-07-08T02:01:13;102062.53;;;16.02;81.61
79309;BME280;68767;53.078;7.386;2023-07-08T02:03:40;102068.28;;;16.00;81.56
79309;BME280;68767;53.078;7.386;2023-07-08T02:06:10;102064.16;;;15.94;81.39
79309;BME280;68767;53.078;7.386;2023-07-08T02:08:37;102068.78;;;15.94;81.19
79309;BME280;68767;53.078;7.386;2023-07-08T02:11:04;102068.78;;;15.85;82.07
79309;BME280;68767;53.078;7.386;2023-07-08T02:13:31;102069.59;;;15.86;82.13
79309;BME280;68767;53.078;7.386;2023-07-08T02:15:58;102064.50;;;15.84;82.35
79309;BME280;68767;53.078;7.386;2023-07-08T02:18:25;102075.97;;;15.90;81.86
79309;BME280;68767;53.078;7.386;2023-07-08T02:20:53;102072.31;;;15.86;82.05
79309;BME280;68767;53.078;7.386;2023-07-08T02:23:22;102068.34;;;15.83;82.97
79309;BME280;68767;53.078;7.386;2023-07-08T02:25:53;102070.09;;;15.79;82.72
79309;BME280;68767;53.078;7.386;2023-07-08T02:28:21;102072.78;;;15.79;82.68
79309;BME280;68767;53.078;7.386;2023-07-08T02:30:48;102066.56;;;15.79;82.91
79309;BME280;68767;53.078;7.386;2023-07-08T02:33:15;102060.34;;;15.78;83.15
79309;BME280;68767;53.078;7.386;2023-07-08T02:35:44;102057.66;;;15.78;82.70
79309;BME280;68767;53.078;7.386;2023-07-08T02:38:14;102047.94;;;15.77;82.99
79309;BME280;68767;53.078;7.386;2023-07-08T02:40:44;102049.53;;;15.69;82.94
79309;BME280;68767;53.078;7.386;2023-07-08T02:43:10;102049.22;;;15.71;83.38
79309;BME280;68767;53.078;7.386;2023-07-08T02:45:37;102043.66;;;15.67;83.44
79309;BME280;68767;53.078;7.386;2023-07-08T02:48:04;102039.97;;;15.63;83.89
79309;BME280;68767;53.078;7.386;2023-07-08T02:50:31;102043.00;;;15.62;83.78
79309;BME280;68767;53.078;7.386;2023-07-08T02:52:58;102042.84;;;15.58;84.47
79309;BME280;68767;53.078;7.386;2023-07-08T02:55:25;102046.50;;;15.54;84.55
79309;BME280;68767;53.078;7.386;2023-07-08T02:57:52;102035.19;;;15.60;84.42
79309;BME280;68767;53.078;7.386;2023-07-08T03:00:19;102034.72;;;15.58;84.11
79309;BME280;68767;53.078;7.386;2023-07-08T03:02:46;102035.03;;;15.57;84.62
79309;BME280;68767;53.078;7.386;2023-07-08T03:05:13;102032.34;;;15.57;84.05
79309;BME280;68767;53.078;7.386;2023-07-08T03:07:40;102042.69;;;15.55;84.50
79309;BME280;68767;53.078;7.386;2023-07-08T03:10:07;102034.25;;;15.56;84.46
79309;BME280;68767;53.078;7.386;2023-07-08T03:12:34;102036.66;;;15.49;85.15
79309;BME280;68767;53.078;7.386;2023-07-08T03:15:02;102025.63;;;15.45;85.12
79309;BME280;68767;53.078;7.386;2023-07-08T03:17:29;102030.09;;;15.50;85.52
79309;BME280;68767;53.078;7.386;2023-07-08T03:19:56;102029.13;;;15.46;85.28
79309;BME280;68767;53.078;7.386;2023-07-08T03:22:23;102029.47;;;15.44;85.33
79309;BME280;68767;53.078;7.386;2023-07-08T03:24:50;102028.84;;;15.48;85.04
79309;BME280;68767;53.078;7.386;2023-07-08T03:27:20;102033.63;;;15.51;84.97
79309;BME280;68767;53.078;7.386;2023-07-08T03:29:49;102030.25;;;15.45;85.05
79309;BME280;68767;53.078;7.386;2023-07-08T03:32:16;102023.44;;;15.48;85.18
79309;BME280;68767;53.078;7.386;2023-07-08T03:34:43;102024.22;;;15.48;84.44
79309;BME280;68767;53.078;7.386;2023-07-08T03:37:10;102015.31;;;15.48;84.64
79309;BME280;68767;53.078;7.386;2023-07-08T03:39:37;102028.66;;;15.53;84.48
79309;BME280;68767;53.078;7.386;2023-07-08T03:42:04;102025.31;;;15.47;84.52
79309;BME280;68767;53.078;7.386;2023-07-08T03:44:31;102017.19;;;15.47;84.63
79309;BME280;68767;53.078;7.386;2023-07-08T03:46:58;102016.25;;;15.43;84.58
79309;BME280;68767;53.078;7.386;2023-07-08T03:49:26;102014.47;;;15.47;85.15
79309;BME280;68767;53.078;7.386;2023-07-08T03:51:54;102023.25;;;15.44;85.17
79309;BME280;68767;53.078;7.386;2023-07-08T03:54:24;102029.31;;;15.50;84.82
79309;BME280;68767;53.078;7.386;2023-07-08T03:56:54;102027.41;;;15.50;85.15
79309;BME280;68767;53.078;7.386;2023-07-08T03:59:23;102020.72;;;15.48;85.31
79309;BME280;68767;53.078;7.386;2023-07-08T04:01:53;102019.44;;;15.45;85.31
79309;BME280;68767;53.078;7.386;2023-07-08T04:04:20;102021.00;;;15.46;85.08
79309;BME280;68767;53.078;7.386;2023-07-08T04:06:46;102018.94;;;15.52;85.15
79309;BME280;68767;53.078;7.386;2023-07-08T04:09:13;102015.44;;;15.51;85.02
79309;BME280;68767;53.078;7.386;2023-07-08T04:11:40;102018.28;;;15.55;85.27
79309;BME280;68767;53.078;7.386;2023-07-08T04:14:09;102017.03;;;15.52;85.39
79309;BME280;68767;53.078;7.386;2023-07-08T04:16:51;102022.44;;;15.52;85.67
79309;BME280;68767;53.078;7.386;2023-07-08T04:19:19;102016.09;;;15.57;85.70
79309;BME280;68767;53.078;7.386;2023-07-08T04:21:46;102012.72;;;15.60;85.23
79309;BME280;68767;53.078;7.386;2023-07-08T04:24:15;102024.34;;;15.60;85.36
79309;BME280;68767;53.078;7.386;2023-07-08T04:26:44;102025.47;;;15.68;85.29
79309;BME280;68767;53.078;7.386;2023-07-08T04:29:16;102019.44;;;15.62;85.54
79309;BME280;68767;53.078;7.386;2023-07-08T04:31:44;102025.63;;;15.71;85.45
79309;BME280;68767;53.078;7.386;2023-07-08T04:34:11;102024.66;;;15.76;84.91
79309;BME280;68767;53.078;7.386;2023-07-08T04:36:38;102021.66;;;15.69;85.02
79309;BME280;68767;53.078;7.386;2023-07-08T04:39:07;102025.47;;;15.77;85.37
79309;BME280;68767;53.078;7.386;2023-07-08T04:41:38;102026.41;;;15.72;85.47
79309;BME280;68767;53.078;7.386;2023-07-08T04:44:08;102027.53;;;15.71;85.03
79309;BME280;68767;53.078;7.386;2023-07-08T04:49:08;102035.16;;;15.86;84.66
79309;BME280;68767;53.078;7.386;2023-07-08T04:51:40;102041.38;;;15.87;84.77
79309;BME280;68767;53.078;7.386;2023-07-08T04:54:08;102033.06;;;15.92;85.73
79309;BME280;68767;53.078;7.386;2023-07-08T04:56:37;102030.19;;;15.88;86.77
79309;BME280;68767;53.078;7.386;2023-07-08T04:59:07;102030.06;;;15.85;86.10
79309;BME280;68767;53.078;7.386;2023-07-08T05:01:34;102035.31;;;15.90;86.06
79309;BME280;68767;53.078;7.386;2023-07-08T05:04:02;102024.94;;;15.92;86.58
79309;BME280;68767;53.078;7.386;2023-07-08T05:06:29;102025.84;;;16.05;85.24
79309;BME280;68767;53.078;7.386;2023-07-08T05:08:58;102021.06;;;16.10;84.26
79309;BME280;68767;53.078;7.386;2023-07-08T05:11:25;102020.22;;;16.18;84.75
79309;BME280;68767;53.078;7.386;2023-07-08T05:13:51;102025.44;;;16.32;83.91
79309;BME280;68767;53.078;7.386;2023-07-08T05:16:18;102022.22;;;16.39;83.88
79309;BME280;68767;53.078;7.386;2023-07-08T05:18:45;102025.72;;;16.39;83.23
79309;BME280;68767;53.078;7.386;2023-07-08T05:21:13;102027.94;;;16.67;82.90
79309;BME280;68767;53.078;7.386;2023-07-08T05:23:40;102023.75;;;17.20;80.77
79309;BME280;68767;53.078;7.386;2023-07-08T05:26:07;102042.84;;;17.32;79.52
79309;BME280;68767;53.078;7.386;2023-07-08T05:28:34;102040.72;;;17.17;79.19
79309;BME280;68767;53.078;7.386;2023-07-08T05:31:02;102041.97;;;16.98;80.29
79309;BME280;68767;53.078;7.386;2023-07-08T05:33:30;102042.03;;;16.90;82.01
79309;BME280;68767;53.078;7.386;2023-07-08T05:35:58;102040.47;;;16.89;82.50
79309;BME280;68767;53.078;7.386;2023-07-08T05:38:25;102041.09;;;16.85;81.38
79309;BME280;68767;53.078;7.386;2023-07-08T05:40:58;102048.44;;;16.85;82.23
79309;BME280;68767;53.078;7.386;2023-07-08T05:43:26;102041.44;;;16.84;82.45
79309;BME280;68767;53.078;7.386;2023-07-08T05:46:00;102034.59;;;16.78;83.61
79309;BME280;68767;53.078;7.386;2023-07-08T05:48:37;102019.25;;;16.82;84.18
79309;BME280;68767;53.078;7.386;2023-07-08T05:51:05;102020.38;;;16.81;83.51
79309;BME280;68767;53.078;7.386;2023-07-08T05:53:31;102024.53;;;16.78;82.49
79309;BME280;68767;53.078;7.386;2023-07-08T05:55:58;102024.75;;;16.94;81.96
79309;BME280;68767;53.078;7.386;2023-07-08T05:58:25;102033.22;;;16.93;81.93
79309;BME280;68767;53.078;7.386;2023-07-08T06:00:57;102022.13;;;17.06;82.01
79309;BME280;68767;53.078;7.386;2023-07-08T06:03:25;102020.53;;;17.05;83.10
79309;BME280;68767;53.078;7.386;2023-07-08T06:05:53;102021.78;;;17.08;84.03
79309;BME280;68767;53.078;7.386;2023-07-08T06:08:20;102018.13;;;17.25;82.03
79309;BME280;68767;53.078;7.386;2023-07-08T06:10:47;102015.66;;;17.32;82.35
79309;BME280;68767;53.078;7.386;2023-07-08T06:13:15;102017.06;;;17.38;82.14
79309;BME280;68767;53.078;7.386;2023-07-08T06:15:42;102011.81;;;17.33;82.14
79309;BME280;68767;53.078;7.386;2023-07-08T06:18:09;102011.84;;;17.45;82.05
79309;BME280;68767;53.078;7.386;2023-07-08T06:20:36;102016.88;;;17.55;80.91
79309;BME280;68767;53.078;7.386;2023-07-08T06:23:03;102014.38;;;17.62;80.63
79309;BME280;68767;53.078;7.386;2023-07-08T06:25:31;102013.28;;;17.63;80.39
79309;BME280;68767;53.078;7.386;2023-07-08T06:27:58;102010.63;;;17.76;78.85
79309;BME280;68767;53.078;7.386;2023-07-08T06:30:25;102008.25;;;17.74;79.48
79309;BME280;68767;53.078;7.386;2023-07-08T06:32:52;102004.97;;;17.93;79.76
79309;BME280;68767;53.078;7.386;2023-07-08T06:35:19;102003.88;;;18.06;77.87
79309;BME280;68767;53.078;7.386;2023-07-08T06:37:46;101998.97;;;18.12;77.45
79309;BME280;68767;53.078;7.386;2023-07-08T06:40:13;102005.91;;;18.21;77.42
79309;BME280;68767;53.078;7.386;2023-07-08T06:42:40;102004.00;;;18.22;78.55
79309;BME280;68767;53.078;7.386;2023-07-08T06:45:31;102008.16;;;18.44;75.87
79309;BME280;68767;53.078;7.386;2023-07-08T06:47:58;102007.72;;;18.66;74.96
79309;BME280;68767;53.078;7.386;2023-07-08T06:50:26;102014.59;;;18.88;72.74
79309;BME280;68767;53.078;7.386;2023-07-08T06:52:53;102005.81;;;18.95;74.09
79309;BME280;68767;53.078;7.386;2023-07-08T06:55:20;102001.97;;;18.96;74.92
79309;BME280;68767;53.078;7.386;2023-07-08T06:57:48;101997.31;;;18.96;75.56
79309;BME280;68767;53.078;7.386;2023-07-08T07:00:15;102000.94;;;19.00;75.07
79309;BME280;68767;53.078;7.386;2023-07-08T07:02:42;102011.00;;;19.12;75.11
79309;BME280;68767;53.078;7.386;2023-07-08T07:05:10;102011.88;;;19.16;73.67
79309;BME280;68767;53.078;7.386;2023-07-08T07:07:37;102004.47;;;19.57;71.46
79309;BME280;68767;53.078;7.386;2023-07-08T07:10:04;101997.06;;;19.57;72.23
79309;BME280;68767;53.078;7.386;2023-07-08T07:12:32;102010.09;;;19.64;71.40
79309;BME280;68767;53.078;7.386;2023-07-08T07:14:59;101999.81;;;19.73;71.12
79309;BME280;68767;53.078;7.386;2023-07-08T07:17:26;101984.44;;;19.97;69.47
79309;BME280;68767;53.078;7.386;2023-07-08T07:19:54;101986.09;;;20.01;70.50
79309;BME280;68767;53.078;7.386;2023-07-08T07:22:21;101984.91;;;20.18;70.88
79309;BME280;68767;53.078;7.386;2023-07-08T07:24:49;101982.59;;;20.52;66.03
79309;BME280;68767;53.078;7.386;2023-07-08T07:27:15;101990.25;;;20.81;65.32
79309;BME280;68767;53.078;7.386;2023-07-08T07:29:43;101986.75;;;20.81;65.74
79309;BME280;68767;53.078;7.386;2023-07-08T07:32:11;101996.66;;;20.89;66.77
79309;BME280;68767;53.078;7.386;2023-07-08T07:34:39;101989.41;;;20.96;66.79
79309;BME280;68767;53.078;7.386;2023-07-08T07:37:11;101988.59;;;21.15;65.46
79309;BME280;68767;53.078;7.386;2023-07-08T07:39:39;101987.16;;;21.41;63.65
79309;BME280;68767;53.078;7.386;2023-07-08T07:42:06;101979.47;;;21.46;63.98
79309;BME280;68767;53.078;7.386;2023-07-08T07:44:34;101983.91;;;21.54;63.81
79309;BME280;68767;53.078;7.386;2023-07-08T07:47:02;101980.97;;;21.67;63.45
79309;BME280;68767;53.078;7.386;2023-07-08T07:49:29;101989.13;;;21.86;61.77
79309;BME280;68767;53.078;7.386;2023-07-08T07:51:57;101973.13;;;21.88;60.87
79309;BME280;68767;53.078;7.386;2023-07-08T07:54:24;101971.34;;;21.99;60.44
79309;BME280;68767;53.078;7.386;2023-07-08T07:56:51;101970.81;;;22.13;60.50
79309;BME280;68767;53.078;7.386;2023-07-08T07:59:19;101972.66;;;22.32;60.03
79309;BME280;68767;53.078;7.386;2023-07-08T08:01:46;101976.97;;;22.59;59.25
79309;BME280;68767;53.078;7.386;2023-07-08T08:04:15;101970.72;;;22.62;60.67
79309;BME280;68767;53.078;7.386;2023-07-08T08:06:42;101979.03;;;22.69;61.23
79309;BME280;68767;53.078;7.386;2023-07-08T08:09:09;101978.09;;;22.85;58.25
79309;BME280;68767;53.078;7.386;2023-07-08T08:11:36;101973.16;;;22.97;57.53
79309;BME280;68767;53.078;7.386;2023-07-08T08:14:03;101979.31;;;23.24;55.71
79309;BME280;68767;53.078;7.386;2023-07-08T08:16:31;101975.47;;;23.33;54.92
79309;BME280;68767;53.078;7.386;2023-07-08T08:18:58;101970.19;;;23.50;56.01
79309;BME280;68767;53.078;7.386;2023-07-08T08:21:25;101970.53;;;23.45;56.83
79309;BME280;68767;53.078;7.386;2023-07-08T08:23:52;101978.44;;;23.54;55.83
79309;BME280;68767;53.078;7.386;2023-07-08T08:26:19;101979.22;;;23.95;54.24
79309;BME280;68767;53.078;7.386;2023-07-08T08:28:46;101976.75;;;23.83;54.00
79309;BME280;68767;53.078;7.386;2023-07-08T08:31:12;101985.22;;;24.12;54.06
79309;BME280;68767;53.078;7.386;2023-07-08T08:33:39;101978.66;;;24.27;54.17
79309;BME280;68767;53.078;7.386;2023-07-08T08:36:06;101977.16;;;24.36;54.98
79309;BME280;68767;53.078;7.386;2023-07-08T08:38:33;101986.66;;;24.50;53.21
79309;BME280;68767;53.078;7.386;2023-07-08T08:41:33;101988.72;;;24.71;53.73
79309;BME280;68767;53.078;7.386;2023-07-08T08:44:02;101987.59;;;24.89;52.56
79309;BME280;68767;53.078;7.386;2023-07-08T08:46:41;102000.59;;;24.96;51.67
79309;BME280;68767;53.078;7.386;2023-07-08T08:49:34;101994.00;;;25.08;50.78
79309;BME280;68767;53.078;7.386;2023-07-08T08:52:04;101990.78;;;24.99;51.54
79309;BME280;68767;53.078;7.386;2023-07-08T08:54:31;101984.63;;;25.48;49.02
79309;BME280;68767;53.078;7.386;2023-07-08T08:59:54;101980.72;;;25.42;49.01
79309;BME280;68767;53.078;7.386;2023-07-08T09:02:41;101979.56;;;25.68;49.16
79309;BME280;68767;53.078;7.386;2023-07-08T09:05:11;101971.69;;;25.41;49.19
79309;BME280;68767;53.078;7.386;2023-07-08T09:08:04;101968.13;;;25.48;49.41
79309;BME280;68767;53.078;7.386;2023-07-08T09:13:32;101959.88;;;25.62;48.56
79309;BME280;68767;53.078;7.386;2023-07-08T09:21:28;101969.28;;;26.43;47.49
79309;BME280;68767;53.078;7.386;2023-07-08T09:24:01;101970.44;;;26.46;45.73
79309;BME280;68767;53.078;7.386;2023-07-08T09:26:30;101962.84;;;26.78;45.83
79309;BME280;68767;53.078;7.386;2023-07-08T09:28:58;101960.09;;;26.78;45.47
79309;BME280;68767;53.078;7.386;2023-07-08T09:31:26;101953.72;;;26.88;46.11
79309;BME280;68767;53.078;7.386;2023-07-08T09:34:15;101967.94;;;26.83;46.52
79309;BME280;68767;53.078;7.386;2023-07-08T09:36:45;101962.16;;;27.30;45.33
79309;BME280;68767;53.078;7.386;2023-07-08T09:39:14;101955.53;;;27.20;45.30
79309;BME280;68767;53.078;7.386;2023-07-08T09:41:44;101953.97;;;27.23;45.19
79309;BME280;68767;53.078;7.386;2023-07-08T09:46:41;101943.66;;;27.27;44.48
79309;BME280;68767;53.078;7.386;2023-07-08T09:49:16;101951.72;;;27.59;42.90
79309;BME280;68767;53.078;7.386;2023-07-08T09:51:45;101949.97;;;27.83;42.88
79309;BME280;68767;53.078;7.386;2023-07-08T09:54:12;101946.59;;;27.57;44.13
79309;BME280;68767;53.078;7.386;2023-07-08T09:56:43;101953.69;;;27.58;44.09
79309;BME280;68767;53.078;7.386;2023-07-08T09:59:12;101965.03;;;27.75;45.32
79309;BME280;68767;53.078;7.386;2023-07-08T10:01:42;101950.97;;;27.99;43.90
79309;BME280;68767;53.078;7.386;2023-07-08T10:04:11;101954.41;;;28.11;42.38
79309;BME280;68767;53.078;7.386;2023-07-08T10:06:38;101948.41;;;28.19;43.68
79309;BME280;68767;53.078;7.386;2023-07-08T10:09:12;101947.91;;;28.62;41.35
79309;BME280;68767;53.078;7.386;2023-07-08T10:11:56;101945.47;;;28.68;42.31
79309;BME280;68767;53.078;7.386;2023-07-08T10:14:37;101944.78;;;28.60;42.25
79309;BME280;68767;53.078;7.386;2023-07-08T10:17:05;101942.97;;;28.77;41.48
79309;BME280;68767;53.078;7.386;2023-07-08T10:19:32;101942.91;;;29.11;39.47
79309;BME280;68767;53.078;7.386;2023-07-08T10:24:58;101952.25;;;29.48;40.23
79309;BME280;68767;53.078;7.386;2023-07-08T10:27:57;101941.72;;;29.86;40.61
79309;BME280;68767;53.078;7.386;2023-07-08T10:30:34;101938.59;;;29.84;39.85
79309;BME280;68767;53.078;7.386;2023-07-08T10:40:03;101938.03;;;30.56;37.08
79309;BME280;68767;53.078;7.386;2023-07-08T10:42:38;101938.66;;;30.63;36.68
79309;BME280;68767;53.078;7.386;2023-07-08T10:53:35;101924.31;;;30.85;36.57
79309;BME280;68767;53.078;7.386;2023-07-08T11:02:10;101920.47;;;31.15;36.34
79309;BME280;68767;53.078;7.386;2023-07-08T11:04:54;101919.09;;;31.39;36.53
79309;BME280;68767;53.078;7.386;2023-07-08T11:07:30;101910.28;;;32.02;35.07
79309;BME280;68767;53.078;7.386;2023-07-08T11:10:01;101909.09;;;32.32;35.10
79309;BME280;68767;53.078;7.386;2023-07-08T11:12:52;101910.00;;;32.67;32.84
79309;BME280;68767;53.078;7.386;2023-07-08T11:18:25;101910.38;;;32.69;35.19
79309;BME280;68767;53.078;7.386;2023-07-08T11:21:06;101905.47;;;32.99;31.79
79309;BME280;68767;53.078;7.386;2023-07-08T11:28:45;101892.22;;;33.03;32.49
79309;BME280;68767;53.078;7.386;2023-07-08T11:31:14;101889.59;;;34.03;31.44
79309;BME280;68767;53.078;7.386;2023-07-08T11:33:42;101889.91;;;34.27;29.61
79309;BME280;68767;53.078;7.386;2023-07-08T11:36:11;101888.72;;;34.69;29.29
79309;BME280;68767;53.078;7.386;2023-07-08T11:38:46;101888.50;;;34.54;30.25
79309;BME280;68767;53.078;7.386;2023-07-08T11:41:16;101880.63;;;34.61;28.96
79309;BME280;68767;53.078;7.386;2023-07-08T11:43:52;101881.44;;;35.21;28.02
79309;BME280;68767;53.078;7.386;2023-07-08T11:46:25;101879.16;;;36.01;26.82
79309;BME280;68767;53.078;7.386;2023-07-08T11:49:05;101871.34;;;36.06;26.37
79309;BME280;68767;53.078;7.386;2023-07-08T11:51:34;101868.25;;;36.04;27.11
79309;BME280;68767;53.078;7.386;2023-07-08T11:56:49;101867.66;;;35.90;26.30
79309;BME280;68767;53.078;7.386;2023-07-08T11:59:19;101869.88;;;37.04;25.27
79309;BME280;68767;53.078;7.386;2023-07-08T12:01:47;101860.63;;;36.04;26.36
79309;BME280;68767;53.078;7.386;2023-07-08T12:04:30;101857.72;;;36.74;25.26
79309;BME280;68767;53.078;7.386;2023-07-08T12:07:10;101860.38;;;37.64;24.05
79309;BME280;68767;53.078;7.386;2023-07-08T12:10:10;101861.31;;;38.00;23.38
79309;BME280;68767;53.078;7.386;2023-07-08T12:12:36;101857.22;;;37.71;23.46
79309;BME280;68767;53.078;7.386;2023-07-08T12:15:25;101857.16;;;38.25;24.60
79309;BME280;68767;53.078;7.386;2023-07-08T12:17:56;101848.75;;;38.74;22.92
79309;BME280;68767;53.078;7.386;2023-07-08T12:20:44;101847.94;;;37.26;24.39
79309;BME280;68767;53.078;7.386;2023-07-08T12:23:18;101844.81;;;36.76;25.08
79309;BME280;68767;53.078;7.386;2023-07-08T12:25:50;101845.94;;;38.25;24.69
79309;BME280;68767;53.078;7.386;2023-07-08T12:28:18;101845.34;;;38.70;23.02
79309;BME280;68767;53.078;7.386;2023-07-08T12:30:46;101846.09;;;39.52;22.79
79309;BME280;68767;53.078;7.386;2023-07-08T12:33:17;101838.66;;;37.88;23.10
79309;BME280;68767;53.078;7.386;2023-07-08T12:35:45;101836.63;;;38.18;23.53
79309;BME280;68767;53.078;7.386;2023-07-08T12:38:26;101849.00;;;39.38;22.51
79309;BME280;68767;53.078;7.386;2023-07-08T12:40:57;101841.09;;;40.14;20.62
79309;BME280;68767;53.078;7.386;2023-07-08T12:43:25;101838.66;;;40.76;20.69
79309;BME280;68767;53.078;7.386;2023-07-08T12:45:52;101833.31;;;41.43;20.38
79309;BME280;68767;53.078;7.386;2023-07-08T12:48:19;101828.63;;;41.29;19.98
79309;BME280;68767;53.078;7.386;2023-07-08T12:50:46;101826.31;;;41.21;19.24
79309;BME280;68767;53.078;7.386;2023-07-08T12:53:16;101829.47;;;40.81;20.08
79309;BME280;68767;53.078;7.386;2023-07-08T12:55:45;101828.34;;;39.41;20.71
79309;BME280;68767;53.078;7.386;2023-07-08T12:58:27;101828.72;;;39.28;20.80
79309;BME280;68767;53.078;7.386;2023-07-08T13:00:56;101825.03;;;38.81;22.39
79309;BME280;68767;53.078;7.386;2023-07-08T13:03:30;101829.69;;;38.84;21.57
79309;BME280;68767;53.078;7.386;2023-07-08T13:06:01;101828.81;;;39.59;20.14
79309;BME280;68767;53.078;7.386;2023-07-08T13:08:31;101821.97;;;39.20;21.39
79309;BME280;68767;53.078;7.386;2023-07-08T13:11:01;101823.28;;;40.77;20.56
79309;BME280;68767;53.078;7.386;2023-07-08T13:13:34;101826.16;;;40.82;19.45
79309;BME280;68767;53.078;7.386;2023-07-08T13:16:02;101809.44;;;38.60;19.94
79309;BME280;68767;53.078;7.386;2023-07-08T13:18:36;101814.59;;;39.02;19.81
79309;BME280;68767;53.078;7.386;2023-07-08T13:21:04;101827.91;;;40.31;19.19
79309;BME280;68767;53.078;7.386;2023-07-08T13:23:33;101814.31;;;38.80;19.43
79309;BME280;68767;53.078;7.386;2023-07-08T13:26:15;101810.41;;;38.07;20.10
79309;BME280;68767;53.078;7.386;2023-07-08T13:28:42;101812.31;;;38.65;20.63
79309;BME280;68767;53.078;7.386;2023-07-08T13:31:22;101812.56;;;38.82;20.29
79309;BME280;68767;53.078;7.386;2023-07-08T13:33:53;101812.41;;;38.91;21.54
79309;BME280;68767;53.078;7.386;2023-07-08T13:36:28;101810.63;;;39.35;19.73
79309;BME280;68767;53.078;7.386;2023-07-08T13:38:55;101818.81;;;40.53;18.43
79309;BME280;68767;53.078;7.386;2023-07-08T13:41:23;101805.78;;;41.21;18.12
79309;BME280;68767;53.078;7.386;2023-07-08T13:43:50;101795.72;;;40.92;17.65
79309;BME280;68767;53.078;7.386;2023-07-08T13:46:51;101809.13;;;40.60;17.08
79309;BME280;68767;53.078;7.386;2023-07-08T13:49:26;101802.41;;;40.52;17.85
79309;BME280;68767;53.078;7.386;2023-07-08T13:52:15;101804.53;;;41.22;18.62
79309;BME280;68767;53.078;7.386;2023-07-08T13:54:48;101801.19;;;41.23;17.38
79309;BME280;68767;53.078;7.386;2023-07-08T13:57:17;101784.19;;;40.90;17.71
79309;BME280;68767;53.078;7.386;2023-07-08T13:59:44;101803.09;;;40.04;17.74